Time;durP1;ratioP1;P1;durP2;ratioP2;P2;SDS_P1;SDS_P2;PMS_P1;PMS_P2;Temp;Humidity;BMP_temperature;BMP_pressure;BME280_temperature;BME280_humidity;BME280_pressure;Samples;Min_cycle;Max_cycle;Signal;HPM_P1;HPM_P2
2023/03/22 00:01:46;;;;;;;9.77;6.40;;;7.50;99.90;;;;;;5033603;28;20182;-84
2023/03/22 00:04:12;;;;;;;7.47;5.70;;;7.50;99.90;;;;;;5034721;28;20181;-85
2023/03/22 00:06:37;;;;;;;8.63;5.53;;;7.40;99.90;;;;;;5052532;28;20178;-83
2023/03/22 00:09:03;;;;;;;5.00;4.50;;;7.40;99.90;;;;;;5034786;28;20241;-83
2023/03/22 00:11:28;;;;;;;7.03;4.87;;;7.30;99.90;;;;;;5034157;28;20198;-83
2023/03/22 00:13:54;;;;;;;6.00;5.10;;;7.20;99.90;;;;;;5052229;28;20218;-85
2023/03/22 00:16:20;;;;;;;5.90;4.93;;;7.20;99.90;;;;;;5034425;28;20176;-84
2023/03/22 00:18:46;;;;;;;6.30;4.90;;;7.10;99.90;;;;;;5052668;28;20303;-83
2023/03/22 00:21:14;;;;;;;6.53;4.77;;;7.10;99.90;;;;;;5051690;28;20207;-83
2023/03/22 00:23:40;;;;;;;7.27;5.30;;;7.10;99.90;;;;;;5052423;28;20177;-83
2023/03/22 00:26:08;;;;;;;6.43;4.83;;;7.10;99.90;;;;;;5052195;28;20171;-83
2023/03/22 00:28:34;;;;;;;6.40;5.50;;;6.90;99.90;;;;;;5051977;28;20668;-83
2023/03/22 00:31:00;;;;;;;6.53;5.57;;;6.90;99.90;;;;;;5051512;28;20232;-84
2023/03/22 00:33:28;;;;;;;6.93;5.10;;;6.80;99.90;;;;;;5052222;28;20170;-83
2023/03/22 00:35:57;;;;;;;7.57;5.10;;;6.90;99.90;;;;;;5034126;28;20178;-83
2023/03/22 00:38:23;;;;;;;6.70;5.10;;;6.90;99.90;;;;;;5034281;28;20189;-84
2023/03/22 00:40:49;;;;;;;8.00;5.20;;;7.00;99.90;;;;;;5051569;28;20216;-85
2023/03/22 00:43:15;;;;;;;9.20;4.90;;;6.90;99.90;;;;;;5051740;28;20175;-84
2023/03/22 00:45:41;;;;;;;5.73;4.90;;;6.80;99.90;;;;;;5034211;28;20204;-83
2023/03/22 00:48:11;;;;;;;7.77;5.20;;;6.60;99.90;;;;;;5051981;28;20580;-83
2023/03/22 00:50:38;;;;;;;5.83;4.60;;;6.60;99.90;;;;;;5033750;28;20198;-83
2023/03/22 00:53:04;;;;;;;6.30;4.80;;;6.60;99.90;;;;;;5051847;28;20655;-83
2023/03/22 00:55:30;;;;;;;7.07;5.00;;;6.60;99.90;;;;;;5034074;28;20253;-83
2023/03/22 00:57:56;;;;;;;10.00;5.00;;;6.60;99.90;;;;;;5033990;28;20265;-85
2023/03/22 01:00:22;;;;;;;6.70;4.73;;;6.60;99.90;;;;;;5051485;28;20281;-83
2023/03/22 01:02:47;;;;;;;6.07;4.77;;;6.60;99.90;;;;;;5051665;28;20173;-83
2023/03/22 01:05:14;;;;;;;5.93;5.10;;;6.60;99.90;;;;;;5034222;28;20182;-83
2023/03/22 01:07:41;;;;;;;6.40;4.77;;;6.70;99.90;;;;;;5051650;28;20248;-84
2023/03/22 01:10:08;;;;;;;5.90;4.83;;;6.70;99.90;;;;;;5051196;28;20618;-83
2023/03/22 01:12:34;;;;;;;5.90;4.70;;;6.60;99.90;;;;;;5034136;28;20178;-83
2023/03/22 01:14:59;;;;;;;6.13;5.20;;;6.60;99.90;;;;;;5054140;28;20185;-83
2023/03/22 01:17:25;;;;;;;6.53;4.80;;;6.70;99.90;;;;;;5053927;28;20182;-84
2023/03/22 01:19:50;;;;;;;5.50;4.90;;;6.70;99.90;;;;;;5037027;28;20292;-83
2023/03/22 01:22:16;;;;;;;7.80;5.37;;;6.70;99.90;;;;;;5036698;28;20640;-83
2023/03/22 01:24:41;;;;;;;7.47;5.07;;;6.70;99.90;;;;;;5055228;28;20176;-83
2023/03/22 01:27:07;;;;;;;6.73;5.43;;;6.80;99.90;;;;;;5055453;28;20213;-84
2023/03/22 01:29:34;;;;;;;6.53;4.87;;;6.90;99.90;;;;;;5037277;28;20182;-83
2023/03/22 01:31:59;;;;;;;6.23;5.30;;;6.90;99.90;;;;;;5054807;28;20269;-83
2023/03/22 01:34:25;;;;;;;6.47;4.97;;;6.90;99.90;;;;;;5055339;28;20277;-85
2023/03/22 01:36:51;;;;;;;6.90;4.70;;;7.00;99.90;;;;;;5037233;28;20175;-83
2023/03/22 01:39:16;;;;;;;6.83;4.53;;;7.00;99.90;;;;;;5037347;28;20182;-83
2023/03/22 01:41:42;;;;;;;6.37;4.57;;;7.00;99.90;;;;;;5054502;28;20270;-83
2023/03/22 01:44:17;;;;;;;5.23;4.47;;;7.00;99.90;;;;;;5037243;28;20179;-83
2023/03/22 01:46:45;;;;;;;6.93;4.40;;;6.90;99.90;;;;;;5054853;28;20217;-83
2023/03/22 01:49:21;;;;;;;5.70;4.70;;;6.80;99.90;;;;;;5055083;28;20202;-83
2023/03/22 01:51:50;;;;;;;5.90;4.93;;;6.70;99.90;;;;;;5054477;28;20241;-83
2023/03/22 01:54:23;;;;;;;6.43;5.10;;;6.70;99.90;;;;;;5054625;28;20174;-83
2023/03/22 01:56:49;;;;;;;5.50;4.70;;;6.60;99.90;;;;;;5037107;28;20183;-84
2023/03/22 01:59:15;;;;;;;6.10;4.70;;;6.50;99.90;;;;;;5054619;28;20170;-84
2023/03/22 02:01:41;;;;;;;5.43;4.53;;;6.60;99.90;;;;;;5054166;28;20199;-84
2023/03/22 02:04:14;;;;;;;6.10;4.63;;;6.60;99.90;;;;;;5054527;28;20261;-83
2023/03/22 02:06:40;;;;;;;5.80;5.17;;;6.60;99.90;;;;;;5036948;28;20182;-83
2023/03/22 02:09:12;;;;;;;6.37;5.20;;;6.70;99.90;;;;;;5036614;28;20201;-83
2023/03/22 02:11:43;;;;;;;7.23;5.03;;;6.80;99.90;;;;;;5053693;28;20204;-83
2023/03/22 02:14:41;;;;;;;7.30;4.73;;;6.80;99.90;;;;;;5036712;28;20216;-83
2023/03/22 02:17:15;;;;;;;5.67;4.57;;;6.90;99.90;;;;;;5036758;28;20639;-83
2023/03/22 02:20:11;;;;;;;5.73;4.57;;;6.90;99.90;;;;;;5053798;28;20715;-86
2023/03/22 02:22:57;;;;;;;6.10;4.57;;;6.90;99.90;;;;;;5036660;28;20700;-84
2023/03/22 02:25:53;;;;;;;5.70;4.63;;;6.90;99.90;;;;;;5036475;28;20177;-84
2023/03/22 02:28:32;;;;;;;6.07;4.43;;;6.80;99.90;;;;;;5036519;28;20198;-83
2023/03/22 02:31:23;;;;;;;6.47;4.70;;;6.80;99.90;;;;;;5053716;28;20197;-83
2023/03/22 02:34:14;;;;;;;6.27;4.80;;;6.80;99.90;;;;;;5054085;28;20182;-83
2023/03/22 02:36:58;;;;;;;6.23;4.80;;;6.80;99.90;;;;;;4978923;28;20187;-83
2023/03/22 02:39:36;;;;;;;5.53;4.70;;;6.70;99.90;;;;;;5035973;28;20181;-84
2023/03/22 02:42:36;;;;;;;6.47;4.60;;;6.70;99.90;;;;;;5075729;23;20245;-82
2023/03/22 02:45:13;;;;;;;6.33;5.00;;;6.60;99.90;;;;;;5017672;28;20170;-82
2023/03/22 02:48:03;;;;;;;6.57;4.87;;;6.60;99.90;;;;;;5016945;28;20206;-82
2023/03/22 02:50:44;;;;;;;6.10;4.93;;;6.60;99.90;;;;;;5034609;28;20219;-82
2023/03/22 02:53:44;;;;;;;5.77;4.73;;;6.60;99.90;;;;;;5035287;28;20632;-82
2023/03/22 02:56:41;;;;;;;6.57;5.00;;;6.60;99.90;;;;;;5014663;28;20186;-80
2023/03/22 02:59:08;;;;;;;7.80;5.50;;;6.60;99.90;;;;;;5004309;28;20549;-80
2023/03/22 03:01:39;;;;;;;7.70;4.97;;;6.50;99.90;;;;;;5016615;28;20197;-80
2023/03/22 03:04:09;;;;;;;7.23;5.20;;;6.60;99.90;;;;;;5035050;28;20181;-80
2023/03/22 03:06:45;;;;;;;8.40;5.47;;;6.60;99.90;;;;;;5016765;28;20177;-80
2023/03/22 03:09:16;;;;;;;5.57;4.93;;;6.60;99.90;;;;;;5034867;28;20216;-80
2023/03/22 03:11:46;;;;;;;7.80;5.53;;;6.70;99.90;;;;;;5016312;28;20202;-80
2023/03/22 03:14:27;;;;;;;6.40;5.27;;;6.60;99.90;;;;;;5034692;28;20174;-81
2023/03/22 03:17:23;;;;;;;7.03;5.10;;;6.70;99.90;;;;;;5034746;28;20238;-80
2023/03/22 03:20:11;;;;;;;6.77;5.20;;;6.70;99.90;;;;;;5016319;28;20174;-80
2023/03/22 03:22:55;;;;;;;5.77;5.17;;;6.70;99.90;;;;;;5034890;28;20174;-80
2023/03/22 03:25:25;;;;;;;6.73;5.20;;;6.70;99.90;;;;;;5016703;28;20269;-80
2023/03/22 03:27:58;;;;;;;6.97;5.60;;;6.70;99.90;;;;;;5016946;28;20198;-80
2023/03/22 03:30:33;;;;;;;7.83;5.57;;;6.80;99.90;;;;;;5016061;28;20204;-80
2023/03/22 03:33:08;;;;;;;7.70;5.60;;;6.90;99.90;;;;;;5017344;28;20215;-80
2023/03/22 03:36:02;;;;;;;9.07;4.80;;;7.00;99.90;;;;;;5017001;28;20185;-80
2023/03/22 03:38:32;;;;;;;7.80;5.10;;;7.10;99.90;;;;;;5016420;28;20182;-80
2023/03/22 03:41:20;;;;;;;7.13;5.50;;;7.10;99.90;;;;;;5016255;28;20214;-80
2023/03/22 03:43:47;;;;;;;7.53;5.27;;;7.20;99.90;;;;;;5016876;28;20178;-80
2023/03/22 03:46:13;;;;;;;8.67;5.93;;;7.30;99.90;;;;;;5016783;28;20183;-80
2023/03/22 03:48:44;;;;;;;7.93;5.50;;;7.40;99.90;;;;;;5016787;28;20763;-80
2023/03/22 03:51:09;;;;;;;8.53;5.50;;;7.40;99.90;;;;;;5016678;28;20201;-80
2023/03/22 03:53:35;;;;;;;6.20;4.90;;;7.40;99.90;;;;;;5034934;28;20174;-81
2023/03/22 03:56:01;;;;;;;6.40;5.33;;;7.30;99.90;;;;;;5034596;28;20229;-80
2023/03/22 03:58:29;;;;;;;7.17;5.27;;;7.30;99.90;;;;;;5035076;28;20198;-81
2023/03/22 04:00:55;;;;;;;7.67;5.43;;;7.30;99.90;;;;;;5034117;28;20198;-80
2023/03/22 04:03:20;;;;;;;7.47;5.37;;;7.30;99.90;;;;;;5017154;28;20182;-81
2023/03/22 04:05:46;;;;;;;7.23;5.57;;;7.40;99.90;;;;;;5035322;28;20180;-80
2023/03/22 04:08:11;;;;;;;7.03;5.27;;;7.40;99.90;;;;;;5017757;28;20206;-81
2023/03/22 04:10:37;;;;;;;7.00;5.53;;;7.30;99.90;;;;;;5016719;28;20675;-81
2023/03/22 04:13:02;;;;;;;7.70;5.40;;;7.30;99.90;;;;;;5017168;28;20177;-81
2023/03/22 04:15:28;;;;;;;6.57;5.30;;;7.40;99.90;;;;;;5017581;28;20531;-81
2023/03/22 04:17:54;;;;;;;7.70;4.63;;;7.50;99.90;;;;;;5017600;28;20527;-81
2023/03/22 04:20:20;;;;;;;6.40;5.27;;;7.50;99.90;;;;;;5034669;28;20194;-80
2023/03/22 04:22:47;;;;;;;7.47;5.37;;;7.50;99.90;;;;;;5017377;28;20175;-80
2023/03/22 04:25:16;;;;;;;7.83;5.53;;;7.50;99.90;;;;;;5035319;28;20166;-81
2023/03/22 04:27:44;;;;;;;8.77;5.10;;;7.50;99.90;;;;;;5017607;28;20206;-80
2023/03/22 04:30:17;;;;;;;9.33;4.87;;;7.60;99.90;;;;;;5017402;28;20174;-81
2023/03/22 04:32:43;;;;;;;6.37;5.60;;;7.60;99.90;;;;;;5017894;28;20189;-81
2023/03/22 04:35:09;;;;;;;6.93;4.90;;;7.50;99.90;;;;;;5036230;28;20559;-80
2023/03/22 04:37:35;;;;;;;6.93;5.10;;;7.40;99.90;;;;;;5036465;28;20181;-81
2023/03/22 04:40:05;;;;;;;7.90;5.57;;;7.30;99.90;;;;;;5035260;28;20178;-81
2023/03/22 04:42:31;;;;;;;8.03;5.60;;;7.30;99.90;;;;;;5036389;28;20185;-81
2023/03/22 04:44:56;;;;;;;8.83;5.30;;;7.40;99.90;;;;;;5019032;28;20649;-80
2023/03/22 04:47:22;;;;;;;7.17;5.30;;;7.40;99.90;;;;;;5018962;28;20205;-81
2023/03/22 04:49:48;;;;;;;6.47;5.10;;;7.40;99.90;;;;;;5038287;28;20170;-81
2023/03/22 04:52:14;;;;;;;6.33;4.90;;;7.30;99.90;;;;;;5022856;28;20193;-81
2023/03/22 04:54:40;;;;;;;7.83;5.23;;;7.30;99.90;;;;;;5023681;28;20169;-81
2023/03/22 04:57:06;;;;;;;7.23;5.10;;;7.20;99.90;;;;;;5023600;28;20189;-81
2023/03/22 04:59:31;;;;;;;7.13;5.20;;;7.20;99.90;;;;;;5040866;28;20182;-80
2023/03/22 05:01:57;;;;;;;6.10;4.67;;;7.30;99.90;;;;;;5024609;28;20742;-81
2023/03/22 05:04:23;;;;;;;7.53;5.13;;;7.40;99.90;;;;;;5025729;28;20178;-80
2023/03/22 05:06:48;;;;;;;6.60;4.97;;;7.40;99.90;;;;;;5035217;28;20707;-80
2023/03/22 05:09:14;;;;;;;5.67;4.93;;;7.40;99.90;;;;;;5019249;28;20212;-81
2023/03/22 05:11:40;;;;;;;7.70;5.60;;;7.40;99.90;;;;;;5027747;28;20277;-80
2023/03/22 05:14:07;;;;;;;6.83;5.13;;;7.40;99.90;;;;;;5043428;28;20183;-79
2023/03/22 05:16:33;;;;;;;7.57;5.23;;;7.40;99.90;;;;;;5041291;28;20186;-80
2023/03/22 05:19:01;;;;;;;7.07;5.13;;;7.50;99.90;;;;;;5041749;28;20247;-80
2023/03/22 05:21:28;;;;;;;8.17;5.43;;;7.40;99.90;;;;;;5040573;28;20232;-83
2023/03/22 05:23:57;;;;;;;7.40;5.27;;;7.40;99.90;;;;;;5041788;28;20660;-80
2023/03/22 05:26:25;;;;;;;9.47;5.50;;;7.30;99.90;;;;;;5041314;28;20170;-81
2023/03/22 05:28:52;;;;;;;7.53;5.50;;;7.20;99.90;;;;;;5040979;28;20261;-80
2023/03/22 05:31:20;;;;;;;6.90;5.47;;;7.20;99.90;;;;;;5022803;28;20186;-80
2023/03/22 05:33:49;;;;;;;6.57;5.23;;;7.20;99.90;;;;;;5022683;28;20614;-80
2023/03/22 05:36:15;;;;;;;8.27;5.53;;;7.10;99.90;;;;;;5041170;28;20246;-80
2023/03/22 05:38:41;;;;;;;6.43;5.27;;;7.10;99.90;;;;;;5041271;28;20194;-80
2023/03/22 05:41:07;;;;;;;6.50;5.27;;;7.00;99.90;;;;;;5022422;28;20205;-79
2023/03/22 05:43:33;;;;;;;6.87;5.63;;;7.00;99.90;;;;;;5022583;28;20181;-86
2023/03/22 05:45:58;;;;;;;10.10;5.73;;;7.00;99.90;;;;;;5037915;28;20689;-86
2023/03/22 05:48:24;;;;;;;7.27;5.40;;;7.00;99.90;;;;;;5019692;28;20228;-86
2023/03/22 05:50:49;;;;;;;6.60;5.07;;;6.90;99.90;;;;;;5036779;28;20607;-86
2023/03/22 05:53:15;;;;;;;6.20;4.90;;;6.90;99.90;;;;;;5019128;28;20182;-86
2023/03/22 05:55:40;;;;;;;6.73;5.30;;;6.80;99.90;;;;;;5019703;28;20213;-86
2023/03/22 05:58:07;;;;;;;7.10;5.57;;;6.80;99.90;;;;;;5019011;28;20205;-84
2023/03/22 06:00:33;;;;;;;6.03;4.87;;;6.90;99.90;;;;;;5035067;28;20201;-83
2023/03/22 06:03:02;;;;;;;8.77;5.67;;;7.10;99.90;;;;;;5037013;28;20185;-82
2023/03/22 06:05:31;;;;;;;5.97;5.00;;;7.40;99.90;;;;;;5036285;28;20190;-81
2023/03/22 06:07:58;;;;;;;8.90;5.40;;;7.60;99.90;;;;;;5018227;28;20253;-82
2023/03/22 06:10:25;;;;;;;7.63;5.93;;;7.80;99.90;;;;;;5018284;28;20244;-80
2023/03/22 06:12:51;;;;;;;7.10;5.37;;;8.00;99.90;;;;;;5018259;28;20185;-82
2023/03/22 06:15:17;;;;;;;7.13;5.40;;;8.10;99.90;;;;;;5036825;28;20202;-84
2023/03/22 06:17:42;;;;;;;6.07;5.40;;;8.30;99.90;;;;;;5019348;28;20179;-84
2023/03/22 06:20:10;;;;;;;6.30;5.20;;;8.00;99.90;;;;;;5017763;28;20182;-83
2023/03/22 06:22:37;;;;;;;7.20;5.40;;;7.80;99.90;;;;;;5017878;28;20210;-84
2023/03/22 06:25:04;;;;;;;7.33;5.83;;;7.60;99.90;;;;;;5036457;28;20184;-84
2023/03/22 06:27:30;;;;;;;6.93;5.17;;;7.40;99.90;;;;;;5018732;28;20739;-87
2023/03/22 06:29:55;;;;;;;7.70;5.70;;;7.40;99.90;;;;;;5034032;28;20270;-87
2023/03/22 06:32:22;;;;;;;5.17;4.60;;;7.30;99.90;;;;;;5034716;28;20215;-84
2023/03/22 06:34:49;;;;;;;5.63;5.03;;;7.30;99.90;;;;;;5016817;28;20209;-84
2023/03/22 06:37:15;;;;;;;6.93;4.90;;;7.20;99.90;;;;;;5017449;28;20184;-86
2023/03/22 06:39:41;;;;;;;6.40;5.03;;;7.20;99.90;;;;;;5036074;28;20178;-84
2023/03/22 06:42:07;;;;;;;6.53;5.07;;;7.20;99.90;;;;;;5018765;28;20343;-84
2023/03/22 06:44:32;;;;;;;5.97;4.73;;;7.20;99.90;;;;;;5036722;28;20163;-84
2023/03/22 06:46:58;;;;;;;7.93;4.63;;;7.10;99.90;;;;;;5017558;28;20180;-87
2023/03/22 06:49:25;;;;;;;5.13;4.40;;;7.10;99.90;;;;;;5020807;28;20214;-84
2023/03/22 06:51:51;;;;;;;6.90;5.10;;;7.20;99.90;;;;;;5019570;28;20252;-84
2023/03/22 06:54:16;;;;;;;6.47;5.20;;;7.20;99.90;;;;;;5020797;28;20176;-85
2023/03/22 06:56:42;;;;;;;7.30;5.17;;;7.20;99.90;;;;;;5020393;28;20682;-83
2023/03/22 06:59:08;;;;;;;6.57;5.33;;;7.20;99.90;;;;;;5020871;28;20180;-84
2023/03/22 07:01:33;;;;;;;6.87;5.17;;;7.30;99.90;;;;;;5019416;28;20205;-84
2023/03/22 07:03:59;;;;;;;8.30;5.47;;;7.40;99.90;;;;;;5038403;28;20172;-85
2023/03/22 07:06:24;;;;;;;8.10;5.13;;;7.50;99.90;;;;;;5021669;28;20184;-84
2023/03/22 07:08:50;;;;;;;6.80;5.47;;;7.50;99.90;;;;;;5021029;28;20282;-83
2023/03/22 07:11:16;;;;;;;7.00;5.27;;;7.60;99.90;;;;;;5034413;28;20198;-85
2023/03/22 07:13:41;;;;;;;8.63;5.57;;;7.60;99.90;;;;;;5038996;28;20548;-84
2023/03/22 07:16:07;;;;;;;7.73;5.17;;;7.70;99.90;;;;;;5021600;28;20174;-84
2023/03/22 07:18:33;;;;;;;6.80;6.10;;;7.80;99.90;;;;;;5016984;28;20195;-84
2023/03/22 07:20:59;;;;;;;7.67;4.90;;;8.00;99.90;;;;;;5033232;28;20195;-83
2023/03/22 07:23:25;;;;;;;5.03;3.90;;;8.30;99.90;;;;;;5021906;28;20212;-84
2023/03/22 07:25:50;;;;;;;6.53;3.80;;;8.70;99.90;;;;;;5039053;28;20208;-85
2023/03/22 07:28:16;;;;;;;4.60;4.00;;;9.00;99.90;;;;;;5039535;28;20216;-84
2023/03/22 07:30:54;;;;;;;7.23;3.70;;;9.20;99.90;;;;;;5020212;28;20193;-85
2023/03/22 07:33:19;;;;;;;4.70;3.30;;;9.40;99.90;;;;;;5022026;28;20176;-85
2023/03/22 07:35:45;;;;;;;5.20;3.87;;;9.50;99.90;;;;;;5020822;28;20185;-83
2023/03/22 07:38:14;;;;;;;6.20;3.77;;;9.60;99.90;;;;;;5036725;28;20200;-80
2023/03/22 07:40:45;;;;;;;5.53;3.47;;;9.80;99.90;;;;;;5034212;28;20228;-86
2023/03/22 07:43:12;;;;;;;5.03;3.80;;;9.90;99.90;;;;;;5019513;28;20178;-85
2023/03/22 07:45:38;;;;;;;5.20;3.90;;;10.00;99.90;;;;;;5019807;28;20178;-85
2023/03/22 07:48:04;;;;;;;4.80;3.67;;;10.10;99.90;;;;;;5024336;28;20205;-85
2023/03/22 07:50:29;;;;;;;5.60;4.00;;;10.20;99.90;;;;;;5040637;28;20202;-86
2023/03/22 07:52:55;;;;;;;4.20;3.80;;;10.30;99.90;;;;;;5017991;28;20558;-85
2023/03/22 07:55:20;;;;;;;4.27;3.83;;;10.40;99.90;;;;;;5015620;28;20181;-86
2023/03/22 07:57:46;;;;;;;6.30;4.50;;;10.40;99.90;;;;;;5036500;28;20178;-86
2023/03/22 08:00:12;;;;;;;5.87;4.37;;;10.50;99.90;;;;;;5035175;28;20178;-85
2023/03/22 08:02:38;;;;;;;6.03;4.43;;;10.50;99.90;;;;;;5032585;28;20185;-83
2023/03/22 08:05:06;;;;;;;4.73;4.30;;;10.60;99.90;;;;;;5032438;28;20200;-86
2023/03/22 08:07:31;;;;;;;6.60;4.80;;;10.70;99.90;;;;;;5032346;28;20201;-87
2023/03/22 08:09:57;;;;;;;6.23;4.60;;;10.80;99.90;;;;;;5014250;28;20284;-85
2023/03/22 08:12:22;;;;;;;6.80;4.37;;;10.90;99.90;;;;;;5032620;28;20555;-85
2023/03/22 08:14:49;;;;;;;4.57;3.67;;;11.10;99.90;;;;;;5014714;28;20178;-85
2023/03/22 08:17:17;;;;;;;5.93;4.10;;;11.20;99.90;;;;;;5015182;28;20229;-85
2023/03/22 08:19:43;;;;;;;5.93;4.47;;;11.10;99.90;;;;;;5014263;28;20170;-85
2023/03/22 08:22:10;;;;;;;6.47;4.53;;;11.10;99.90;;;;;;5032469;28;20191;-86
2023/03/22 08:24:36;;;;;;;6.43;4.27;;;11.10;99.90;;;;;;5032067;28;20183;-85
2023/03/22 08:27:02;;;;;;;6.27;4.40;;;11.00;99.90;;;;;;5014814;28;20174;-85
2023/03/22 08:29:27;;;;;;;5.20;4.30;;;11.00;99.90;;;;;;5032459;28;20202;-85
2023/03/22 08:31:53;;;;;;;4.97;4.43;;;11.00;99.90;;;;;;5014291;28;20278;-86
2023/03/22 08:34:19;;;;;;;7.43;4.80;;;11.20;99.90;;;;;;5014421;28;20174;-86
2023/03/22 08:36:45;;;;;;;7.13;5.00;;;11.20;99.90;;;;;;5014674;28;20171;-85
2023/03/22 08:39:11;;;;;;;5.50;4.60;;;11.10;99.90;;;;;;5014598;28;20228;-86
2023/03/22 08:41:38;;;;;;;5.83;4.80;;;11.10;99.90;;;;;;5032901;28;20210;-87
2023/03/22 08:44:04;;;;;;;5.60;4.47;;;11.10;99.90;;;;;;5032692;28;20185;-85
2023/03/22 08:46:29;;;;;;;6.87;4.40;;;11.10;99.90;;;;;;5015601;28;20203;-85
2023/03/22 08:48:58;;;;;;;6.90;4.73;;;11.20;99.90;;;;;;5016901;28;20441;-86
2023/03/22 08:51:24;;;;;;;6.23;4.67;;;11.20;99.90;;;;;;5016485;28;20186;-85
2023/03/22 08:53:49;;;;;;;7.37;4.50;;;11.10;99.90;;;;;;5034646;28;20197;-85
2023/03/22 08:56:18;;;;;;;5.80;4.30;;;11.00;99.90;;;;;;5015691;28;20202;-86
2023/03/22 08:58:45;;;;;;;5.77;4.13;;;10.90;99.90;;;;;;5015344;28;20258;-85
2023/03/22 09:01:16;;;;;;;6.00;4.10;;;10.90;99.90;;;;;;5014894;28;20221;-85
2023/03/22 09:03:42;;;;;;;5.63;4.00;;;10.90;99.90;;;;;;5016138;28;20174;-85
2023/03/22 09:06:09;;;;;;;5.60;4.00;;;11.20;99.90;;;;;;5017520;28;20556;-86
2023/03/22 09:08:35;;;;;;;6.60;4.17;;;11.30;99.90;;;;;;5034717;28;20213;-84
2023/03/22 09:11:00;;;;;;;6.33;4.37;;;11.40;99.90;;;;;;5015628;28;20667;-87
2023/03/22 09:13:27;;;;;;;4.63;3.60;;;11.50;99.90;;;;;;5031679;28;20179;-86
2023/03/22 09:15:52;;;;;;;4.20;3.50;;;11.70;99.90;;;;;;5014884;28;20185;-85
2023/03/22 09:18:18;;;;;;;6.43;3.97;;;11.80;99.90;;;;;;5032682;28;20206;-82
2023/03/22 09:20:45;;;;;;;5.77;4.13;;;11.70;99.90;;;;;;5014774;28;20201;-83
2023/03/22 09:23:11;;;;;;;5.67;3.90;;;11.70;99.90;;;;;;5015417;28;20236;-83
2023/03/22 09:25:37;;;;;;;4.17;3.47;;;11.60;99.90;;;;;;5032931;28;20176;-84
2023/03/22 09:28:03;;;;;;;7.20;3.80;;;11.80;99.90;;;;;;5015231;28;20197;-84
2023/03/22 09:30:29;;;;;;;5.53;3.53;;;11.80;99.90;;;;;;5032721;28;20190;-83
2023/03/22 09:32:55;;;;;;;4.70;3.10;;;11.70;99.90;;;;;;5015462;28;20170;-83
2023/03/22 09:35:21;;;;;;;4.63;2.93;;;11.90;99.90;;;;;;5034379;28;20176;-83
2023/03/22 09:37:48;;;;;;;4.17;2.77;;;12.00;99.90;;;;;;5019285;28;20584;-83
2023/03/22 09:40:14;;;;;;;3.37;2.77;;;12.30;99.90;;;;;;5036492;28;20178;-83
2023/03/22 09:42:48;;;;;;;4.30;2.67;;;12.60;99.90;;;;;;5020239;28;20269;-83
2023/03/22 09:45:24;;;;;;;3.60;2.80;;;12.70;99.90;;;;;;5037898;28;20158;-84
2023/03/22 09:47:53;;;;;;;5.10;2.70;;;12.70;99.90;;;;;;5019126;28;20194;-84
2023/03/22 09:50:25;;;;;;;4.30;2.43;;;12.70;99.90;;;;;;5038964;28;20277;-84
2023/03/22 09:52:52;;;;;;;3.70;2.40;;;12.70;99.90;;;;;;5041802;28;20171;-83
2023/03/22 09:55:22;;;;;;;3.23;2.20;;;12.70;99.90;;;;;;5040724;28;20170;-84
2023/03/22 09:58:31;;;;;;;2.80;2.37;;;12.50;99.90;;;;;;5040953;28;20170;-83
2023/03/22 10:01:01;;;;;;;3.20;2.03;;;12.50;99.90;;;;;;4906081;29;20313;-84
2023/03/22 10:03:57;;;;;;;3.93;2.30;;;12.30;99.90;;;;;;4921918;29;20215;-84
2023/03/22 10:06:25;;;;;;;4.43;2.10;;;12.20;99.90;;;;;;4988129;28;20668;-83
2023/03/22 10:09:09;;;;;;;3.70;1.90;;;12.10;99.90;;;;;;5023312;28;20217;-84
2023/03/22 10:11:40;;;;;;;3.57;1.67;;;12.10;99.90;;;;;;5041105;28;20194;-84
2023/03/22 10:14:22;;;;;;;1.87;1.43;;;12.30;99.90;;;;;;5021482;28;20179;-84
2023/03/22 10:16:50;;;;;;;2.30;1.50;;;12.30;99.90;;;;;;5039358;28;20164;-82
2023/03/22 10:19:22;;;;;;;3.10;1.40;;;12.40;99.90;;;;;;5039825;28;20182;-85
2023/03/22 10:21:51;;;;;;;4.47;1.60;;;12.40;99.90;;;;;;5040165;28;20194;-84
2023/03/22 10:24:32;;;;;;;3.43;1.40;;;12.50;99.90;;;;;;5023998;28;20212;-86
2023/03/22 10:26:58;;;;;;;1.47;1.27;;;12.70;99.90;;;;;;5024034;28;20170;-84
2023/03/22 10:29:32;;;;;;;1.50;1.23;;;13.00;99.90;;;;;;5024477;28;20694;-84
2023/03/22 10:32:15;;;;;;;2.90;1.10;;;13.20;99.90;;;;;;5023073;28;20186;-84
2023/03/22 10:34:42;;;;;;;1.87;1.20;;;13.40;99.90;;;;;;5041756;28;20170;-83
2023/03/22 10:37:14;;;;;;;4.43;1.10;;;13.50;99.90;;;;;;5042019;28;20660;-84
2023/03/22 10:39:50;;;;;;;1.77;1.30;;;13.30;99.90;;;;;;5041571;28;20190;-85
2023/03/22 10:42:20;;;;;;;1.40;1.10;;;13.50;99.90;;;;;;5043815;28;20218;-85
2023/03/22 10:44:48;;;;;;;0.90;0.90;;;13.80;99.90;;;;;;5029000;28;20256;-85
2023/03/22 10:47:17;;;;;;;3.10;1.30;;;14.10;99.90;;;;;;5029505;28;20174;-84
2023/03/22 10:49:53;;;;;;;2.70;1.20;;;14.40;99.90;;;;;;5050602;28;20178;-85
2023/03/22 10:52:22;;;;;;;1.77;1.00;;;14.50;99.90;;;;;;5035498;28;20187;-85
2023/03/22 10:54:47;;;;;;;1.87;1.20;;;14.50;99.90;;;;;;5043507;28;20329;-87
2023/03/22 10:57:13;;;;;;;1.10;1.00;;;14.60;99.90;;;;;;5015656;28;20206;-86
2023/03/22 10:59:48;;;;;;;1.83;1.10;;;14.10;99.90;;;;;;5014980;28;20178;-87
2023/03/22 11:02:18;;;;;;;3.50;1.43;;;13.80;99.90;;;;;;5015547;28;20198;-85
2023/03/22 11:04:52;;;;;;;1.83;1.00;;;13.70;99.90;;;;;;5033349;28;20177;-86
2023/03/22 11:07:31;;;;;;;1.20;1.00;;;13.60;99.90;;;;;;5015976;28;20178;-86
2023/03/22 11:10:20;;;;;;;2.23;1.20;;;13.70;99.90;;;;;;5015363;28;20181;-89
2023/03/22 11:12:51;;;;;;;3.33;1.50;;;14.00;99.90;;;;;;5033507;28;20178;-86
2023/03/22 11:15:27;;;;;;;1.93;1.10;;;14.30;99.90;;;;;;5033746;28;20182;-84
2023/03/22 11:17:59;;;;;;;1.97;1.43;;;14.40;99.90;;;;;;5019097;28;20174;-83
2023/03/22 11:20:24;;;;;;;3.73;1.20;;;14.40;99.90;;;;;;5036474;28;20229;-84
2023/03/22 11:22:50;;;;;;;1.70;1.27;;;14.50;99.90;;;;;;5018321;28;20586;-84
2023/03/22 11:25:21;;;;;;;3.33;1.40;;;14.50;99.90;;;;;;5018028;28;20186;-84
2023/03/22 11:27:52;;;;;;;1.97;1.40;;;14.50;99.90;;;;;;5018446;28;20198;-84
2023/03/22 11:30:21;;;;;;;3.17;1.80;;;14.10;99.90;;;;;;5035963;28;20266;-84
2023/03/22 11:32:48;;;;;;;2.73;1.57;;;14.00;99.90;;;;;;5034670;28;20166;-87
2023/03/22 11:35:17;;;;;;;3.43;1.70;;;14.00;99.90;;;;;;5034137;28;20175;-87
2023/03/22 11:37:47;;;;;;;3.43;2.10;;;14.00;99.90;;;;;;5034010;28;20207;-87
2023/03/22 11:40:24;;;;;;;5.70;3.13;;;14.00;99.90;;;;;;5015385;28;20632;-87
2023/03/22 11:43:09;;;;;;;1.97;1.53;;;14.00;99.90;;;;;;5016528;28;20178;-85
2023/03/22 11:45:37;;;;;;;4.33;1.60;;;14.10;99.90;;;;;;4998150;28;20224;-85
2023/03/22 11:48:13;;;;;;;2.23;1.43;;;14.20;99.90;;;;;;5036345;28;20218;-85
2023/03/22 11:50:44;;;;;;;2.07;1.47;;;14.20;99.90;;;;;;5016188;28;20219;-87
2023/03/22 11:53:16;;;;;;;1.40;1.20;;;14.30;99.90;;;;;;5033644;28;20174;-87
2023/03/22 11:55:43;;;;;;;2.17;1.30;;;14.50;99.90;;;;;;5033621;28;20178;-87
2023/03/22 11:58:25;;;;;;;2.90;1.30;;;14.40;99.90;;;;;;5016962;28;20205;-86
2023/03/22 12:00:53;;;;;;;3.10;1.40;;;14.50;99.90;;;;;;5016858;28;20252;-85
2023/03/22 12:03:24;;;;;;;2.17;1.40;;;14.50;99.90;;;;;;5017948;28;20178;-85
2023/03/22 12:05:51;;;;;;;2.53;1.50;;;14.70;99.90;;;;;;5018360;28;20571;-85
2023/03/22 12:08:20;;;;;;;2.90;1.30;;;14.80;99.90;;;;;;5036382;28;20236;-85
2023/03/22 12:10:54;;;;;;;2.23;1.40;;;15.00;99.90;;;;;;5035856;28;20198;-86
2023/03/22 12:13:29;;;;;;;1.47;1.30;;;15.10;99.90;;;;;;5036332;28;20171;-85
2023/03/22 12:15:59;;;;;;;2.40;1.30;;;15.00;99.90;;;;;;5038858;28;20158;-84
2023/03/22 12:18:47;;;;;;;1.93;1.30;;;14.90;99.90;;;;;;5035927;28;20578;-85
2023/03/22 12:21:14;;;;;;;2.13;1.30;;;14.70;99.90;;;;;;5017091;28;20198;-84
2023/03/22 12:23:40;;;;;;;1.90;1.40;;;14.70;99.90;;;;;;5021001;28;20181;-85
2023/03/22 12:26:09;;;;;;;2.80;1.40;;;14.70;99.90;;;;;;5020907;28;20182;-85
2023/03/22 12:28:40;;;;;;;1.93;1.50;;;14.50;99.90;;;;;;5020206;28;20693;-85
2023/03/22 12:31:18;;;;;;;2.53;1.37;;;14.40;99.90;;;;;;5039143;28;20197;-84
2023/03/22 12:33:47;;;;;;;13.83;3.67;;;14.50;99.90;;;;;;5037483;28;20190;-85
2023/03/22 12:36:19;;;;;;;3.03;1.40;;;14.60;99.90;;;;;;5033646;28;20245;-86
2023/03/22 12:38:57;;;;;;;1.53;1.30;;;14.70;99.90;;;;;;5032884;28;20182;-84
2023/03/22 12:41:35;;;;;;;1.97;1.40;;;14.90;99.90;;;;;;5015901;28;20206;-87
2023/03/22 12:44:15;;;;;;;2.83;1.43;;;15.00;99.90;;;;;;5016444;28;20562;-82
2023/03/22 12:46:58;;;;;;;2.00;1.63;;;15.00;99.90;;;;;;5032610;28;20197;-88
2023/03/22 12:49:41;;;;;;;2.60;1.70;;;14.90;99.90;;;;;;5033659;28;20208;-85
2023/03/22 12:52:19;;;;;;;2.27;1.50;;;15.00;99.90;;;;;;5033892;28;20212;-83
2023/03/22 12:54:47;;;;;;;1.43;1.33;;;15.20;99.90;;;;;;5016916;28;20174;-87
2023/03/22 12:57:14;;;;;;;2.90;1.60;;;15.40;99.90;;;;;;5016461;28;20171;-85
2023/03/22 12:59:43;;;;;;;1.70;1.40;;;15.50;99.90;;;;;;5037674;28;20186;-84
2023/03/22 13:02:15;;;;;;;11.43;4.40;;;15.30;99.20;;;;;;5019602;28;20194;-82
2023/03/22 13:04:42;;;;;;;1.80;1.60;;;15.30;99.50;;;;;;5026712;28;20174;-82
2023/03/22 13:07:15;;;;;;;2.30;1.87;;;15.10;99.90;;;;;;5016499;28;20208;-83